Time;durP1;ratioP1;P1;durP2;ratioP2;P2;SDS_P1;SDS_P2;PMS_P1;PMS_P2;Temp;Humidity;BMP_temperature;BMP_pressure;BME280_temperature;BME280_humidity;BME280_pressure;Samples;Min_cycle;Max_cycle;Signal;HPM_P1;HPM_P2
2023/08/23 00:01:12;;;;;;;;;;;17.80;99.90;;;;;;5036732;28;19986;-70
2023/08/23 00:03:37;;;;;;;;;;;17.80;99.90;;;;;;5036361;28;20003;-71
2023/08/23 00:06:03;;;;;;;;;;;17.80;99.90;;;;;;5018444;28;19929;-71
2023/08/23 00:08:28;;;;;;;;;;;17.80;99.90;;;;;;5036172;28;20043;-71
2023/08/23 00:10:54;;;;;;;;;;;17.80;99.90;;;;;;5036358;28;20380;-71
2023/08/23 00:13:20;;;;;;;;;;;17.70;99.90;;;;;;5036650;28;19932;-71
2023/08/23 00:15:46;;;;;;;;;;;17.70;99.90;;;;;;5036003;28;19925;-71
2023/08/23 00:18:11;;;;;;;;;;;17.70;99.90;;;;;;5036655;28;20618;-71
2023/08/23 00:20:37;;;;;;;;;;;17.70;99.90;;;;;;5036277;28;19925;-71
2023/08/23 00:23:02;;;;;;;;;;;17.70;99.90;;;;;;5033434;28;19933;-71
2023/08/23 00:25:28;;;;;;;;;;;17.60;99.90;;;;;;5032981;28;19929;-71
2023/08/23 00:27:53;;;;;;;;;;;17.50;99.90;;;;;;5034975;28;19971;-71
2023/08/23 00:30:19;;;;;;;;;;;17.60;99.90;;;;;;5033380;28;20294;-71
2023/08/23 00:32:44;;;;;;;;;;;17.50;99.90;;;;;;5035596;28;19944;-71
2023/08/23 00:35:10;;;;;;;;;;;17.60;99.90;;;;;;5032312;28;19926;-71
2023/08/23 00:37:35;;;;;;;;;;;17.50;99.90;;;;;;5036138;28;20354;-71
2023/08/23 00:40:01;;;;;;;;;;;17.50;99.90;;;;;;5033725;28;20402;-71
2023/08/23 00:42:26;;;;;;;;;;;17.50;99.90;;;;;;5035842;28;19933;-71
2023/08/23 00:44:52;;;;;;;;;;;17.50;99.90;;;;;;5034902;28;19925;-71
2023/08/23 00:47:17;;;;;;;;;;;17.50;99.90;;;;;;5035734;28;19971;-71
2023/08/23 00:49:46;;;;;;;;;;;17.50;99.90;;;;;;5032579;28;19925;-71
2023/08/23 00:52:11;;;;;;;;;;;17.50;99.90;;;;;;5035898;28;19925;-72
2023/08/23 00:54:37;;;;;;;;;;;17.40;99.90;;;;;;5034450;28;19925;-71
2023/08/23 00:57:03;;;;;;;;;;;17.40;99.90;;;;;;5033139;28;20466;-71
2023/08/23 00:59:29;;;;;;;;;;;17.40;99.90;;;;;;5032436;28;19976;-72
2023/08/23 01:01:55;;;;;;;;;;;17.30;99.90;;;;;;5032410;28;19983;-72
2023/08/23 01:04:20;;;;;;;;;;;17.30;99.90;;;;;;5041309;28;19925;-71
2023/08/23 01:06:46;;;;;;;;;;;17.30;99.90;;;;;;5033544;28;19925;-71
2023/08/23 01:09:12;;;;;;;;;;;17.30;99.90;;;;;;5044998;28;19932;-71
2023/08/23 01:11:45;;;;;;;;;;;17.30;1.00;;;;;;5048782;28;20679;-71
2023/08/23 01:14:26;;;;;;;;;;;17.20;1.00;;;;;;5040687;28;19925;-71
2023/08/23 01:16:51;;;;;;;;;;;17.20;1.00;;;;;;5046433;28;19978;-71
2023/08/23 01:19:31;;;;;;;;;;;17.20;1.00;;;;;;5049156;28;19929;-71
2023/08/23 01:21:57;;;;;;;;;;;17.20;1.00;;;;;;5044613;28;19929;-71
2023/08/23 01:24:23;;;;;;;;;;;17.10;1.00;;;;;;5039854;28;20045;-71
2023/08/23 01:26:48;;;;;;;;;;;17.10;1.00;;;;;;5044083;28;20354;-71
2023/08/23 01:29:14;;;;;;;;;;;17.00;1.00;;;;;;5048844;28;20466;-71
2023/08/23 01:31:42;;;;;;;;;;;17.10;1.00;;;;;;5043890;28;19925;-71
2023/08/23 01:34:10;;;;;;;;;;;17.10;1.00;;;;;;5038727;28;20372;-70
2023/08/23 01:36:39;;;;;;;;;;;17.00;1.00;;;;;;5045544;28;19925;-71
2023/08/23 01:39:05;;;;;;;;;;;17.00;1.00;;;;;;5040530;28;19976;-71
2023/08/23 01:41:30;;;;;;;;;;;17.00;1.00;;;;;;5038988;28;19971;-72
2023/08/23 01:43:57;;;;;;;;;;;17.00;1.00;;;;;;5029941;28;20044;-70
2023/08/23 01:46:22;;;;;;;;;;;17.00;1.00;;;;;;5030006;28;19929;-71
2023/08/23 01:48:48;;;;;;;;;;;17.00;1.00;;;;;;5043620;28;20019;-71
2023/08/23 01:51:13;;;;;;;;;;;16.90;1.00;;;;;;5038305;28;19925;-71
2023/08/23 01:53:39;;;;;;;;;;;16.90;1.00;;;;;;5043618;28;19924;-71
2023/08/23 01:56:04;;;;;;;;;;;16.90;1.00;;;;;;5047955;28;19939;-71
2023/08/23 01:58:30;;;;;;;;;;;16.90;1.00;;;;;;5045409;28;19933;-71
2023/08/23 02:00:55;;;;;;;;;;;16.90;1.00;;;;;;5047754;28;20364;-71
2023/08/23 02:03:21;;;;;;;;;;;16.90;1.00;;;;;;5045047;28;19925;-71
2023/08/23 02:05:46;;;;;;;;;;;16.90;1.00;;;;;;5047810;28;20386;-71
2023/08/23 02:08:14;;;;;;;;;;;16.90;1.00;;;;;;5045334;28;19935;-71
2023/08/23 02:10:41;;;;;;;;;;;16.90;1.00;;;;;;5047851;28;19925;-71
2023/08/23 02:13:06;;;;;;;;;;;16.90;1.00;;;;;;5042111;28;19948;-71
2023/08/23 02:15:32;;;;;;;;;;;16.90;1.00;;;;;;5037459;28;20446;-71
2023/08/23 02:17:58;;;;;;;;;;;16.90;1.00;;;;;;5045462;28;19979;-71
2023/08/23 02:20:23;;;;;;;;;;;16.90;1.00;;;;;;5048118;28;19929;-71
2023/08/23 02:22:49;;;;;;;;;;;16.80;1.00;;;;;;5045800;28;19974;-71
2023/08/23 02:25:14;;;;;;;;;;;16.80;1.00;;;;;;5048527;28;19986;-71
2023/08/23 02:27:40;;;;;;;;;;;16.80;1.00;;;;;;5034611;28;19925;-71
2023/08/23 02:30:06;;;;;;;;;;;16.80;1.00;;;;;;5047216;28;20020;-71
2023/08/23 02:32:31;;;;;;;;;;;16.70;1.00;;;;;;5048400;28;19970;-71
2023/08/23 02:34:57;;;;;;;;;;;16.70;1.00;;;;;;5048013;28;19924;-72
2023/08/23 02:37:22;;;;;;;;;;;16.70;1.00;;;;;;5046499;28;20309;-72
2023/08/23 02:39:48;;;;;;;;;;;16.70;1.00;;;;;;5047851;28;20381;-72
2023/08/23 02:42:13;;;;;;;;;;;16.70;1.00;;;;;;5046884;28;19932;-72
2023/08/23 02:44:39;;;;;;;;;;;16.70;1.00;;;;;;5047751;28;20027;-71
2023/08/23 02:47:04;;;;;;;;;;;16.60;1.00;;;;;;5034312;28;20327;-72
2023/08/23 02:49:30;;;;;;;;;;;16.60;1.00;;;;;;5030148;28;20300;-72
2023/08/23 02:51:55;;;;;;;;;;;16.60;1.00;;;;;;5030090;28;19940;-72
2023/08/23 02:54:21;;;;;;;;;;;16.60;1.00;;;;;;5029593;28;19929;-72
2023/08/23 02:56:46;;;;;;;;;;;16.60;1.00;;;;;;5029962;28;19925;-72
2023/08/23 02:59:13;;;;;;;;;;;16.60;1.00;;;;;;5029746;28;19929;-72
2023/08/23 03:01:38;;;;;;;;;;;16.60;1.00;;;;;;5030168;28;19971;-72
2023/08/23 03:04:04;;;;;;;;;;;16.60;1.00;;;;;;5030146;28;19933;-71
2023/08/23 03:06:29;;;;;;;;;;;16.50;1.00;;;;;;5031140;28;19929;-71
2023/08/23 03:08:55;;;;;;;;;;;16.50;1.00;;;;;;5030650;28;19925;-71
2023/08/23 03:11:20;;;;;;;;;;;16.40;1.00;;;;;;5031320;28;19928;-71
2023/08/23 03:13:46;;;;;;;;;;;16.40;1.00;;;;;;5036332;28;19932;-71
2023/08/23 03:16:11;;;;;;;;;;;16.40;1.00;;;;;;5044431;28;20395;-71
2023/08/23 03:18:37;;;;;;;;;;;16.30;1.00;;;;;;5046161;28;19925;-71
2023/08/23 03:21:02;;;;;;;;;;;16.30;1.00;;;;;;5044332;28;19933;-71
2023/08/23 03:23:28;;;;;;;;;;;16.30;1.00;;;;;;5046505;28;20310;-71
2023/08/23 03:25:53;;;;;;;;;;;16.30;1.00;;;;;;5043831;28;20421;-70
2023/08/23 03:28:19;;;;;;;;;;;16.30;1.00;;;;;;5046799;28;19929;-71
2023/08/23 03:30:44;;;;;;;;;;;16.30;1.00;;;;;;5031523;28;19988;-71
2023/08/23 03:33:10;;;;;;;;;;;16.30;1.00;;;;;;5029452;28;19925;-72
2023/08/23 03:35:35;;;;;;;;;;;16.30;1.00;;;;;;5046241;28;19967;-71
2023/08/23 03:38:01;;;;;;;;;;;16.30;1.00;;;;;;5047230;28;19928;-72
2023/08/23 03:40:26;;;;;;;;;;;16.20;1.00;;;;;;5046465;28;20379;-72
2023/08/23 03:42:52;;;;;;;;;;;16.20;1.00;;;;;;5048088;28;20022;-72
2023/08/23 03:45:18;;;;;;;;;;;16.20;1.00;;;;;;5047744;28;19975;-72
2023/08/23 03:47:44;;;;;;;;;;;16.20;1.00;;;;;;5048782;28;20020;-72
2023/08/23 03:50:10;;;;;;;;;;;16.20;1.00;;;;;;5048167;28;19925;-72
2023/08/23 03:52:35;;;;;;;;;;;16.10;1.00;;;;;;5048910;28;19929;-72
2023/08/23 03:55:01;;;;;;;;;;;16.10;1.00;;;;;;5048118;28;20483;-72
2023/08/23 03:57:26;;;;;;;;;;;16.10;1.00;;;;;;5041929;28;20346;-72
2023/08/23 03:59:52;;;;;;;;;;;16.10;1.00;;;;;;5046136;28;20004;-71
2023/08/23 04:02:18;;;;;;;;;;;16.20;1.00;;;;;;5045527;28;19925;-71
2023/08/23 04:04:43;;;;;;;;;;;16.10;1.00;;;;;;5035889;28;20036;-72
2023/08/23 04:07:09;;;;;;;;;;;16.20;1.00;;;;;;5034761;28;20379;-72
2023/08/23 04:09:35;;;;;;;;;;;16.10;1.00;;;;;;5034438;28;19925;-72
2023/08/23 04:12:00;;;;;;;;;;;16.10;1.00;;;;;;5034334;28;19979;-72
2023/08/23 04:14:26;;;;;;;;;;;16.10;1.00;;;;;;5043823;28;19978;-72
2023/08/23 04:16:51;;;;;;;;;;;16.10;1.00;;;;;;5050270;28;20353;-72
2023/08/23 04:19:17;;;;;;;;;;;16.20;1.00;;;;;;5049248;28;19929;-72
2023/08/23 04:21:45;;;;;;;;;;;16.20;1.00;;;;;;5050846;28;19925;-72
2023/08/23 04:24:10;;;;;;;;;;;16.20;1.00;;;;;;5049209;28;19925;-72
2023/08/23 04:26:36;;;;;;;;;;;16.20;1.00;;;;;;5031968;28;20019;-72
2023/08/23 04:29:01;;;;;;;;;;;16.30;1.00;;;;;;5037635;28;20019;-71
2023/08/23 04:31:27;;;;;;;;;;;16.30;1.00;;;;;;5050024;28;19979;-71
2023/08/23 04:33:53;;;;;;;;;;;16.30;1.00;;;;;;5049158;28;19979;-72
2023/08/23 04:36:19;;;;;;;;;;;16.40;1.00;;;;;;5049717;28;19939;-69
2023/08/23 04:38:44;;;;;;;;;;;16.40;1.00;;;;;;5048503;28;20055;-71
2023/08/23 04:41:10;;;;;;;;;;;16.40;1.00;;;;;;5049974;28;20024;-71
2023/08/23 04:43:35;;;;;;;;;;;16.40;1.00;;;;;;5035074;28;19929;-71
2023/08/23 04:46:01;;;;;;;;;;;16.40;1.00;;;;;;5049522;28;20390;-71
2023/08/23 04:48:26;;;;;;;;;;;16.40;1.00;;;;;;5038245;28;20403;-71
2023/08/23 04:50:53;;;;;;;;;;;16.50;1.00;;;;;;5030938;28;19925;-71
2023/08/23 04:53:18;;;;;;;;;;;16.50;1.00;;;;;;5048048;28;19925;-71
2023/08/23 04:55:44;;;;;;;;;;;16.40;1.00;;;;;;5049045;28;20405;-71
2023/08/23 04:58:09;;;;;;;;;;;16.50;1.00;;;;;;5048732;28;20544;-71
2023/08/23 05:00:35;;;;;;;;;;;16.50;1.00;;;;;;5048861;28;19939;-71
2023/08/23 05:03:01;;;;;;;;;;;16.50;1.00;;;;;;5049092;28;19925;-71
2023/08/23 05:05:26;;;;;;;;;;;16.50;1.00;;;;;;5049765;28;19925;-71
2023/08/23 05:07:52;;;;;;;;;;;16.50;1.00;;;;;;5050137;28;19925;-71
2023/08/23 05:10:18;;;;;;;;;;;16.60;1.00;;;;;;5036417;28;19925;-72
2023/08/23 05:12:43;;;;;;;;;;;16.60;1.00;;;;;;5049217;28;20401;-72
2023/08/23 05:15:09;;;;;;;;;;;16.60;1.00;;;;;;5035846;28;19925;-72
2023/08/23 05:17:34;;;;;;;;;;;16.60;1.00;;;;;;5047152;28;19935;-72
2023/08/23 05:20:00;;;;;;;;;;;16.60;1.00;;;;;;5046656;28;20318;-72
2023/08/23 05:22:25;;;;;;;;;;;16.60;1.00;;;;;;5029126;28;19932;-72
2023/08/23 05:24:51;;;;;;;;;;;16.70;1.00;;;;;;5047281;28;19931;-72
2023/08/23 05:27:16;;;;;;;;;;;16.70;1.00;;;;;;5049489;28;19924;-68
2023/08/23 05:29:42;;;;;;;;;;;16.70;1.00;;;;;;5048368;28;19925;-69
2023/08/23 05:32:07;;;;;;;;;;;16.80;1.00;;;;;;5050328;28;20002;-71
2023/08/23 05:34:33;;;;;;;;;;;16.80;1.00;;;;;;5038420;28;19925;-71
2023/08/23 05:36:59;;;;;;;;;;;16.80;1.00;;;;;;5043427;28;19933;-72
2023/08/23 05:39:24;;;;;;;;;;;16.90;1.00;;;;;;5048174;28;20394;-70
2023/08/23 05:41:50;;;;;;;;;;;16.90;1.00;;;;;;5039241;28;19925;-70
2023/08/23 05:44:15;;;;;;;;;;;16.90;1.00;;;;;;5030666;28;19925;-70
2023/08/23 05:46:41;;;;;;;;;;;16.90;1.00;;;;;;5031612;28;19987;-70
2023/08/23 05:49:06;;;;;;;;;;;16.90;1.00;;;;;;5030845;28;19925;-70
2023/08/23 05:51:32;;;;;;;;;;;16.90;1.00;;;;;;5042000;28;19925;-70
2023/08/23 05:53:57;;;;;;;;;;;16.90;1.00;;;;;;5031794;28;20425;-71
2023/08/23 05:56:24;;;;;;;;;;;16.90;1.00;;;;;;5039746;28;19929;-71
2023/08/23 05:58:49;;;;;;;;;;;16.90;1.00;;;;;;5047981;28;20023;-71
2023/08/23 06:01:15;;;;;;;;;;;17.00;1.00;;;;;;5032482;28;20011;-71
2023/08/23 06:03:41;;;;;;;;;;;17.00;1.00;;;;;;5027532;28;19968;-71
2023/08/23 06:06:07;;;;;;;;;;;17.10;1.00;;;;;;5031532;28;19925;-71
2023/08/23 06:08:33;;;;;;;;;;;17.10;1.00;;;;;;5031382;28;19933;-70
2023/08/23 06:10:59;;;;;;;;;;;17.20;1.00;;;;;;5031317;28;19929;-70
2023/08/23 06:13:24;;;;;;;;;;;17.20;1.00;;;;;;5046413;28;19999;-70
2023/08/23 06:15:50;;;;;;;;;;;17.30;1.00;;;;;;5047951;28;20387;-71
2023/08/23 06:18:15;;;;;;;;;;;17.40;1.00;;;;;;5041481;28;20037;-71
2023/08/23 06:20:43;;;;;;;;;;;17.50;1.00;;;;;;5041062;28;20017;-70
2023/08/23 06:23:08;;;;;;;;;;;17.50;1.00;;;;;;5047087;28;20280;-70
2023/08/23 06:25:34;;;;;;;;;;;17.60;1.00;;;;;;5048986;28;19928;-71
2023/08/23 06:28:00;;;;;;;;;;;17.60;1.00;;;;;;5048129;28;19932;-71
2023/08/23 06:30:25;;;;;;;;;;;17.70;1.00;;;;;;5049430;28;19929;-71
2023/08/23 06:32:51;;;;;;;;;;;17.80;1.00;;;;;;5048522;28;19925;-71
2023/08/23 06:35:17;;;;;;;;;;;17.90;1.00;;;;;;5049660;28;20410;-71
2023/08/23 06:37:43;;;;;;;;;;;18.00;1.00;;;;;;5048648;28;19925;-71
2023/08/23 06:40:12;;;;;;;;;;;18.00;1.00;;;;;;5049261;28;19931;-71
2023/08/23 06:42:38;;;;;;;;;;;18.20;1.00;;;;;;5048948;28;20458;-70
2023/08/23 06:45:04;;;;;;;;;;;18.20;1.00;;;;;;5049456;28;20063;-71
2023/08/23 06:47:30;;;;;;;;;;;18.30;1.00;;;;;;5048474;28;19928;-71
2023/08/23 06:49:55;;;;;;;;;;;18.30;1.00;;;;;;5049155;28;19980;-71
2023/08/23 06:52:21;;;;;;;;;;;18.30;1.00;;;;;;5042908;28;19950;-71
2023/08/23 06:54:46;;;;;;;;;;;18.40;1.00;;;;;;5030825;28;19925;-71
2023/08/23 06:57:12;;;;;;;;;;;18.40;1.00;;;;;;5032610;28;19925;-71
2023/08/23 06:59:37;;;;;;;;;;;18.40;1.00;;;;;;5031460;28;19931;-71
2023/08/23 07:02:03;;;;;;;;;;;18.40;1.00;;;;;;5033407;28;20299;-71
2023/08/23 07:04:28;;;;;;;;;;;18.50;1.00;;;;;;5030622;28;19933;-71
2023/08/23 07:06:54;;;;;;;;;;;18.50;1.00;;;;;;5033651;28;19936;-71
2023/08/23 07:09:20;;;;;;;;;;;18.60;1.00;;;;;;5031288;28;19932;-70
2023/08/23 07:11:45;;;;;;;;;;;18.60;1.00;;;;;;5033287;28;19932;-71
2023/08/23 07:14:11;;;;;;;;;;;18.70;1.00;;;;;;5040604;28;20020;-71
2023/08/23 07:16:36;;;;;;;;;;;18.70;1.00;;;;;;5045189;28;19931;-70
2023/08/23 07:19:02;;;;;;;;;;;18.70;1.00;;;;;;5047259;28;20712;-71
2023/08/23 07:21:29;;;;;;;;;;;18.80;1.00;;;;;;5046023;28;20371;-71
2023/08/23 07:23:54;;;;;;;;;;;18.90;1.00;;;;;;5048378;28;19929;-71
2023/08/23 07:26:20;;;;;;;;;;;18.90;1.00;;;;;;5047522;28;19924;-71
2023/08/23 07:28:45;;;;;;;;;;;19.00;1.00;;;;;;5045774;28;20634;-71
2023/08/23 07:31:11;;;;;;;;;;;19.00;1.00;;;;;;5047509;28;19924;-70
2023/08/23 07:33:36;;;;;;;;;;;19.00;1.00;;;;;;5052684;28;19925;-71
2023/08/23 07:36:02;;;;;;;;;;;19.00;1.00;;;;;;5051586;28;19990;-71
2023/08/23 07:38:34;;;;;;;;;;;19.10;1.00;;;;;;5035146;28;19990;-70
2023/08/23 07:41:01;;;;;;;;;;;19.20;1.00;;;;;;5016867;28;20455;-71
2023/08/23 07:43:27;;;;;;;;;;;19.20;1.00;;;;;;5033586;28;20000;-71
2023/08/23 07:45:56;;;;;;;;;;;19.30;1.00;;;;;;5033273;28;19929;-71
2023/08/23 07:48:22;;;;;;;;;;;19.40;1.00;;;;;;5033695;28;20008;-70
2023/08/23 07:50:51;;;;;;;;;;;19.40;1.00;;;;;;5034155;28;20385;-71
2023/08/23 07:53:17;;;;;;;;;;;19.50;1.00;;;;;;5034368;28;19926;-71
2023/08/23 07:55:43;;;;;;;;;;;19.60;1.00;;;;;;5034478;28;19925;-71
2023/08/23 07:58:08;;;;;;;;;;;19.70;1.00;;;;;;5033717;28;19964;-71
2023/08/23 08:00:34;;;;;;;;;;;19.80;1.00;;;;;;5034180;28;19925;-71
2023/08/23 08:03:00;;;;;;;;;;;20.00;1.00;;;;;;5033698;28;20424;-71
2023/08/23 08:05:25;;;;;;;;;;;20.10;1.00;;;;;;5034461;28;20391;-71
2023/08/23 08:07:51;;;;;;;;;;;20.30;1.00;;;;;;5033883;28;19925;-71
2023/08/23 08:10:16;;;;;;;;;;;20.40;1.00;;;;;;5033737;28;20323;-71
2023/08/23 08:12:42;;;;;;;;;;;20.50;1.00;;;;;;5034114;28;19932;-71
2023/08/23 08:15:09;;;;;;;;;;;20.60;1.00;;;;;;5048984;28;19925;-71
2023/08/23 08:17:34;;;;;;;;;;;20.70;1.00;;;;;;5049288;28;20218;-71
2023/08/23 08:20:04;;;;;;;;;;;20.70;1.00;;;;;;5048170;28;20019;-71
2023/08/23 08:22:30;;;;;;;;;;;20.90;1.00;;;;;;5049222;28;19947;-71
2023/08/23 08:24:55;;;;;;;;;;;21.00;1.00;;;;;;5049588;28;20418;-71
2023/08/23 08:27:21;;;;;;;;;;;21.10;1.00;;;;;;5048149;28;20371;-71
2023/08/23 08:29:46;;;;;;;;;;;21.20;1.00;;;;;;5031075;28;19925;-71
2023/08/23 08:32:11;;;;;;;;;;;21.30;1.00;;;;;;5049270;28;19932;-71
2023/08/23 08:34:37;;;;;;;;;;;21.50;1.00;;;;;;5048504;28;20600;-71
2023/08/23 08:37:04;;;;;;;;;;;21.60;99.90;;;;;;5048786;28;19925;-71
2023/08/23 08:39:29;;;;;;;;;;;21.60;99.90;;;;;;5048734;28;20019;-71
2023/08/23 08:41:55;;;;;;;;;;;21.70;99.90;;;;;;5048744;28;20402;-71
2023/08/23 08:44:21;;;;;;;;;;;21.80;99.90;;;;;;5048666;28;19925;-71
2023/08/23 08:46:46;;;;;;;;;;;21.80;99.90;;;;;;5048119;28;19925;-71
2023/08/23 08:49:12;;;;;;;;;;;21.80;99.90;;;;;;5048981;28;20008;-71
2023/08/23 08:51:39;;;;;;;;;;;21.80;99.90;;;;;;5037329;28;20032;-71
2023/08/23 08:54:05;;;;;;;;;;;21.70;99.90;;;;;;5025326;28;19925;-71
2023/08/23 08:56:31;;;;;;;;;;;21.70;99.90;;;;;;5043442;28;19931;-71
2023/08/23 08:58:57;;;;;;;;;;;21.70;99.90;;;;;;5048247;28;19985;-71
2023/08/23 09:01:23;;;;;;;;;;;21.80;99.90;;;;;;5037246;28;19925;-71
2023/08/23 09:03:49;;;;;;;;;;;21.80;99.90;;;;;;5048685;28;20303;-71
2023/08/23 09:06:15;;;;;;;;;;;21.80;99.90;;;;;;5047929;28;20298;-71
2023/08/23 09:08:40;;;;;;;;;;;21.80;85.20;;;;;;5048271;28;19925;-71
2023/08/23 09:11:06;;;;;;;;;;;21.80;99.90;;;;;;5047177;28;19931;-71
2023/08/23 09:13:31;;;;;;;;;;;21.90;99.90;;;;;;5047578;28;19932;-71
2023/08/23 09:15:58;;;;;;;;;;;22.00;99.90;;;;;;5048031;28;19925;-70
2023/08/23 09:18:23;;;;;;;;;;;22.20;99.90;;;;;;5047855;28;20382;-71
2023/08/23 09:20:49;;;;;;;;;;;22.30;99.90;;;;;;5047407;28;19925;-71
2023/08/23 09:23:15;;;;;;;;;;;22.60;95.00;;;;;;5048269;28;19928;-71
2023/08/23 09:25:40;;;;;;;;;;;22.80;1.00;;;;;;5047497;28;19960;-71
2023/08/23 09:28:10;;;;;;;;;;;23.20;99.90;;;;;;5037020;28;19935;-71
2023/08/23 09:30:36;;;;;;;;;;;23.80;99.90;;;;;;5047242;28;19932;-71
2023/08/23 09:33:02;;;;;;;;;;;24.50;77.90;;;;;;5048516;28;19928;-71
2023/08/23 09:35:29;;;;;;;;;;;25.20;1.00;;;;;;5048017;28;20262;-71
2023/08/23 09:37:54;;;;;;;;;;;25.80;1.00;;;;;;5032065;28;20010;-71
2023/08/23 09:40:21;;;;;;;;;;;26.20;93.20;;;;;;5049373;28;20021;-71
2023/08/23 09:42:47;;;;;;;;;;;26.50;1.00;;;;;;5049585;28;20401;-71
2023/08/23 09:45:17;;;;;;;;;;;26.70;99.90;;;;;;5049523;28;20318;-71
2023/08/23 09:47:45;;;;;;;;;;;26.80;99.90;;;;;;5024864;28;19929;-72
2023/08/23 09:50:11;;;;;;;;;;;27.00;27.30;;;;;;5048560;28;20276;-72
2023/08/23 09:52:37;;;;;;;;;;;27.30;1.00;;;;;;5049947;28;19931;-72
2023/08/23 09:55:05;;;;;;;;;;;27.50;1.00;;;;;;5034793;28;19929;-72
2023/08/23 09:57:31;;;;;;;;;;;27.70;1.00;;;;;;5050077;28;20384;-72
2023/08/23 09:59:59;;;;;;;;;;;28.00;1.00;;;;;;5049003;28;19932;-72
2023/08/23 10:02:26;;;;;;;;;;;28.10;99.90;;;;;;5049474;28;19929;-72
2023/08/23 10:04:52;;;;;;;;;;;28.00;99.90;;;;;;5047777;28;19925;-72
2023/08/23 10:07:18;;;;;;;;;;;27.90;99.90;;;;;;5048984;28;20019;-71
2023/08/23 10:09:45;;;;;;;;;;;27.90;99.90;;;;;;5047338;28;19940;-71
2023/08/23 10:12:11;;;;;;;;;;;27.90;99.90;;;;;;5049272;28;19924;-72
2023/08/23 10:14:39;;;;;;;;;;;27.70;99.90;;;;;;5037552;28;19948;-71
2023/08/23 10:17:06;;;;;;;;;;;27.40;99.90;;;;;;5042739;28;19925;-72
2023/08/23 10:19:31;;;;;;;;;;;27.10;99.90;;;;;;5039382;28;19947;-71
2023/08/23 10:21:57;;;;;;;;;;;26.70;99.90;;;;;;5043349;28;19925;-71
2023/08/23 10:24:24;;;;;;;;;;;26.40;99.90;;;;;;5040455;28;20014;-72
2023/08/23 10:26:52;;;;;;;;;;;26.20;99.90;;;;;;5043334;28;19998;-71
2023/08/23 10:29:28;;;;;;;;;;;26.10;99.90;;;;;;5040332;28;19944;-71
2023/08/23 10:31:54;;;;;;;;;;;26.00;99.90;;;;;;5041928;28;19936;-71
2023/08/23 10:34:23;;;;;;;;;;;26.10;99.90;;;;;;5042089;28;19932;-71
2023/08/23 10:36:49;;;;;;;;;;;26.30;99.90;;;;;;5041446;28;19929;-71
2023/08/23 10:39:14;;;;;;;;;;;26.60;99.90;;;;;;5042592;28;19994;-72
2023/08/23 10:41:40;;;;;;;;;;;27.30;99.90;;;;;;5040970;28;19987;-71
2023/08/23 10:44:13;;;;;;;;;;;27.90;99.90;;;;;;5042401;28;21318;-72
2023/08/23 10:46:42;;;;;;;;;;;28.30;99.90;;;;;;5040552;28;19932;-71
2023/08/23 10:49:08;;;;;;;;;;;27.80;99.90;;;;;;5035730;28;19931;-72
2023/08/23 10:51:34;;;;;;;;;;;27.30;99.90;;;;;;5039455;28;19972;-71
2023/08/23 10:54:00;;;;;;;;;;;27.00;99.90;;;;;;5043777;28;19932;-71
2023/08/23 10:56:27;;;;;;;;;;;26.90;99.90;;;;;;5038976;28;19925;-71
2023/08/23 10:58:53;;;;;;;;;;;26.70;99.90;;;;;;5027070;28;20644;-71
2023/08/23 11:01:19;;;;;;;;;;;26.60;99.90;;;;;;5041054;28;20353;-71
2023/08/23 11:03:44;;;;;;;;;;;26.80;99.90;;;;;;5044977;28;20055;-71
2023/08/23 11:06:10;;;;;;;;;;;26.90;99.90;;;;;;5040295;28;20028;-71
2023/08/23 11:08:35;;;;;;;;;;;26.90;99.90;;;;;;5041222;28;19925;-71
2023/08/23 11:11:01;;;;;;;;;;;26.90;99.90;;;;;;5023146;28;20403;-71
2023/08/23 11:13:26;;;;;;;;;;;27.30;99.90;;;;;;5043173;28;19931;-71
2023/08/23 11:15:53;;;;;;;;;;;27.80;99.90;;;;;;5035802;28;19925;-72
2023/08/23 11:18:19;;;;;;;;;;;28.00;99.90;;;;;;5045486;28;19972;-72
2023/08/23 11:20:45;;;;;;;;;;;28.30;99.90;;;;;;5046539;28;19925;-71
2023/08/23 11:23:11;;;;;;;;;;;28.60;99.90;;;;;;5045643;28;19925;-72
2023/08/23 11:25:36;;;;;;;;;;;29.30;99.90;;;;;;5046761;28;20292;-72
2023/08/23 11:28:03;;;;;;;;;;;29.80;99.90;;;;;;5040881;28;19933;-72
2023/08/23 11:30:29;;;;;;;;;;;30.40;99.90;;;;;;5040737;28;19968;-72
2023/08/23 11:32:57;;;;;;;;;;;30.80;99.90;;;;;;5033787;28;19967;-72
2023/08/23 11:35:23;;;;;;;;;;;30.80;99.90;;;;;;5047942;28;19936;-72
2023/08/23 11:37:49;;;;;;;;;;;30.60;99.90;;;;;;5046039;28;19928;-72
2023/08/23 11:40:15;;;;;;;;;;;30.20;99.90;;;;;;5047637;28;20390;-72
2023/08/23 11:42:40;;;;;;;;;;;29.70;99.90;;;;;;5042147;28;19925;-71
2023/08/23 11:45:06;;;;;;;;;;;29.30;99.90;;;;;;5040983;28;19975;-72
2023/08/23 11:47:33;;;;;;;;;;;29.10;99.90;;;;;;5047873;28;19925;-71
2023/08/23 11:49:58;;;;;;;;;;;29.00;99.90;;;;;;5018778;28;20039;-72
2023/08/23 11:52:27;;;;;;;;;;;28.80;99.90;;;;;;5047208;28;19955;-72
2023/08/23 11:54:53;;;;;;;;;;;28.50;99.90;;;;;;5047408;28;19925;-71
2023/08/23 11:57:18;;;;;;;;;;;28.20;99.90;;;;;;5048752;28;19924;-72
2023/08/23 11:59:44;;;;;;;;;;;28.00;99.90;;;;;;5047001;28;19929;-71
2023/08/23 12:02:10;;;;;;;;;;;27.80;99.90;;;;;;5048864;28;19925;-71
2023/08/23 12:04:39;;;;;;;;;;;27.60;99.90;;;;;;5047851;28;19925;-71
2023/08/23 12:07:05;;;;;;;;;;;27.40;99.90;;;;;;5042029;28;19959;-71
2023/08/23 12:09:32;;;;;;;;;;;27.60;99.90;;;;;;5029596;28;19925;-71
2023/08/23 12:11:59;;;;;;;;;;;27.70;99.90;;;;;;5035315;28;19929;-71
2023/08/23 12:14:28;;;;;;;;;;;27.50;99.90;;;;;;5045433;28;20007;-72
2023/08/23 12:16:54;;;;;;;;;;;27.60;99.90;;;;;;5039877;28;20470;-71
2023/08/23 12:19:19;;;;;;;;;;;28.00;99.90;;;;;;5041912;28;19925;-72
2023/08/23 12:21:45;;;;;;;;;;;28.70;99.90;;;;;;5049792;28;20288;-72
2023/08/23 12:24:10;;;;;;;;;;;29.20;99.90;;;;;;5048914;28;20012;-71
2023/08/23 12:26:37;;;;;;;;;;;29.30;99.90;;;;;;5049579;28;20066;-72
2023/08/23 12:29:03;;;;;;;;;;;29.20;99.90;;;;;;5038017;28;20016;-72
2023/08/23 12:31:29;;;;;;;;;;;28.80;99.90;;;;;;5051584;28;20391;-71
2023/08/23 12:33:54;;;;;;;;;;;28.90;99.90;;;;;;5050487;28;19939;-72
2023/08/23 12:36:20;;;;;;;;;;;29.40;99.90;;;;;;5039993;28;19929;-72
2023/08/23 12:38:46;;;;;;;;;;;29.90;99.90;;;;;;5050898;28;20600;-72
2023/08/23 12:41:12;;;;;;;;;;;30.30;99.90;;;;;;5044896;28;19971;-71
2023/08/23 12:43:37;;;;;;;;;;;30.60;99.90;;;;;;5014768;28;20487;-72
2023/08/23 12:46:03;;;;;;;;;;;30.50;99.90;;;;;;5033398;28;19929;-72
2023/08/23 12:48:29;;;;;;;;;;;30.10;95.70;;;;;;5033643;28;20271;-71
2023/08/23 12:50:54;;;;;;;;;;;30.00;94.00;;;;;;5033740;28;20358;-72
2023/08/23 12:53:20;;;;;;;;;;;30.10;93.10;;;;;;5034130;28;20406;-72
2023/08/23 12:55:48;;;;;;;;;;;30.10;92.00;;;;;;5030768;28;19926;-72
2023/08/23 12:58:13;;;;;;;;;;;30.40;92.80;;;;;;5015712;28;20035;-71
2023/08/23 13:00:39;;;;;;;;;;;31.10;94.30;;;;;;5015744;28;19975;-72
2023/08/23 13:03:04;;;;;;;;;;;31.30;91.30;;;;;;5032308;28;19987;-72
2023/08/23 13:05:30;;;;;;;;;;;31.30;89.20;;;;;;5035194;28;19925;-72
2023/08/23 13:07:56;;;;;;;;;;;31.60;82.70;;;;;;5033396;28;20342;-72
2023/08/23 13:10:22;;;;;;;;;;;31.70;76.90;;;;;;5032958;28;19940;-72
2023/08/23 13:12:47;;;;;;;;;;;32.10;78.40;;;;;;5033083;28;20318;-71
2023/08/23 13:15:13;;;;;;;;;;;32.50;76.50;;;;;;5037890;28;20310;-72
2023/08/23 13:17:38;;;;;;;;;;;32.50;75.20;;;;;;5047774;28;19929;-72
2023/08/23 13:20:05;;;;;;;;;;;31.90;73.90;;;;;;5047897;28;19932;-72
2023/08/23 13:22:30;;;;;;;;;;;31.20;71.70;;;;;;5047707;28;20008;-71
2023/08/23 13:24:56;;;;;;;;;;;30.50;70.50;;;;;;5048079;28;20015;-72
2023/08/23 13:27:21;;;;;;;;;;;29.70;68.00;;;;;;5048214;28;20371;-72
2023/08/23 13:29:47;;;;;;;;;;;29.20;67.70;;;;;;5047944;28;20313;-72
2023/08/23 13:32:13;;;;;;;;;;;28.80;68.00;;;;;;5047965;28;20405;-71
2023/08/23 13:34:38;;;;;;;;;;;28.60;68.90;;;;;;5047801;28;19925;-71
2023/08/23 13:37:07;;;;;;;;;;;28.90;70.60;;;;;;5047464;28;19931;-72
2023/08/23 13:39:33;;;;;;;;;;;29.20;72.00;;;;;;5047394;28;19924;-72
2023/08/23 13:41:59;;;;;;;;;;;29.00;70.30;;;;;;5035963;28;19932;-71
2023/08/23 13:44:24;;;;;;;;;;;29.00;70.80;;;;;;5030783;28;19929;-71
2023/08/23 13:46:50;;;;;;;;;;;28.90;68.70;;;;;;5041596;28;20433;-71
2023/08/23 13:49:15;;;;;;;;;;;28.50;68.00;;;;;;5036962;28;20024;-71
2023/08/23 13:51:41;;;;;;;;;;;28.40;68.00;;;;;;5036277;28;19929;-71
2023/08/23 13:54:06;;;;;;;;;;;28.20;67.90;;;;;;5030833;28;20284;-71
2023/08/23 13:56:32;;;;;;;;;;;27.90;67.90;;;;;;5042297;28;19932;-71
2023/08/23 13:58:59;;;;;;;;;;;27.60;68.60;;;;;;5036154;28;19932;-71
2023/08/23 14:01:25;;;;;;;;;;;27.50;71.80;;;;;;5018365;28;20303;-71
2023/08/23 14:03:51;;;;;;;;;;;27.40;72.40;;;;;;5049031;28;20306;-71
2023/08/23 14:06:16;;;;;;;;;;;27.30;75.10;;;;;;5048501;28;20004;-71
2023/08/23 14:08:42;;;;;;;;;;;27.50;80.80;;;;;;5048697;28;20779;-71
2023/08/23 14:11:07;;;;;;;;;;;27.70;82.30;;;;;;5035991;28;20032;-72
2023/08/23 14:13:33;;;;;;;;;;;28.10;84.50;;;;;;5036546;28;19999;-71
2023/08/23 14:15:58;;;;;;;;;;;28.60;84.90;;;;;;5046980;28;19985;-70